Time;durP1;ratioP1;P1;durP2;ratioP2;P2;SDS_P1;SDS_P2;PMS_P1;PMS_P2;Temp;Humidity;BMP_temperature;BMP_pressure;BME280_temperature;BME280_humidity;BME280_pressure;Samples;Min_cycle;Max_cycle;Signal;HPM_P1;HPM_P2
2023/03/09 00:00:31;;;;;;;7.22;2.53;;;21.60;51.90;;;;;;6152859;28;19922;-52
2023/03/09 00:03:32;;;;;;;10.15;2.92;;;21.50;51.60;;;;;;6153232;28;20047;-50
2023/03/09 00:06:37;;;;;;;;;;;21.70;52.00;;;;;;6153616;28;20516;-51
2023/03/09 00:09:38;;;;;;;11.15;3.53;;;21.50;51.90;;;;;;6152665;29;19926;-54
2023/03/09 00:12:40;;;;;;;;;;;21.50;51.90;;;;;;6152630;28;20050;-52
2023/03/09 00:15:41;;;;;;;8.73;2.75;;;21.50;52.00;;;;;;6153178;28;19945;-49
2023/03/09 00:18:43;;;;;;;;;;;21.70;52.10;;;;;;6153029;28;20043;-53
2023/03/09 00:21:49;;;;;;;;;;;21.70;52.20;;;;;;6151850;29;19922;-54
2023/03/09 00:24:53;;;;;;;9.93;3.03;;;21.50;52.00;;;;;;6152499;28;19972;-49
2023/03/09 00:27:55;;;;;;;10.48;3.38;;;21.50;52.00;;;;;;6152325;28;20047;-50
2023/03/09 00:30:59;;;;;;;;;;;21.50;52.20;;;;;;6153049;29;20048;-51
2023/03/09 00:34:02;;;;;;;11.45;3.40;;;21.50;52.40;;;;;;6150980;29;19922;-51
2023/03/09 00:37:04;;;;;;;9.50;3.13;;;21.60;52.40;;;;;;6152124;28;20047;-50
2023/03/09 00:40:07;;;;;;;12.93;4.47;;;21.30;52.40;;;;;;6152546;29;20043;-52
2023/03/09 00:43:09;;;;;;;14.40;3.67;;;21.50;52.70;;;;;;6152108;28;20562;-48
2023/03/09 00:46:12;;;;;;;;;;;21.50;52.80;;;;;;6152447;29;20514;-52
2023/03/09 00:49:15;;;;;;;9.48;3.65;;;21.60;52.90;;;;;;6152329;28;19930;-52
2023/03/09 00:52:17;;;;;;;10.60;3.95;;;21.60;52.80;;;;;;6150730;29;20424;-53
2023/03/09 00:55:18;;;;;;;12.85;4.60;;;21.50;52.90;;;;;;6151959;29;20046;-54
2023/03/09 00:58:20;;;;;;;;;;;21.40;53.00;;;;;;6152579;28;20102;-49
2023/03/09 01:01:21;;;;;;;11.18;3.28;;;21.40;53.00;;;;;;6151933;28;19926;-51
2023/03/09 01:04:22;;;;;;;;;;;21.60;53.10;;;;;;6152216;28;20146;-53
2023/03/09 01:07:25;;;;;;;12.70;3.33;;;21.30;53.00;;;;;;6151830;28;19922;-51
2023/03/09 01:10:29;;;;;;;11.82;4.15;;;21.50;53.00;;;;;;6151771;28;20051;-51
2023/03/09 01:13:32;;;;;;;13.95;4.10;;;21.40;53.10;;;;;;6151553;28;20059;-49
2023/03/09 01:16:33;;;;;;;11.73;4.45;;;21.40;53.20;;;;;;6150258;29;20051;-50
2023/03/09 01:19:34;;;;;;;;;;;21.50;53.30;;;;;;6152071;28;20140;-52
2023/03/09 01:22:37;;;;;;;10.50;3.30;;;21.50;53.30;;;;;;6151575;28;19927;-48
2023/03/09 01:25:38;;;;;;;11.73;3.95;;;21.50;53.10;;;;;;6150392;28;20050;-53
2023/03/09 01:28:41;;;;;;;9.65;3.63;;;21.60;53.20;;;;;;6151600;28;20058;-52
2023/03/09 01:31:43;;;;;;;10.45;3.63;;;21.70;53.30;;;;;;6151173;29;20098;-54
2023/03/09 01:34:46;;;;;;;6.65;2.83;;;21.50;53.20;;;;;;6150966;29;20106;-54
2023/03/09 01:37:48;;;;;;;6.50;3.05;;;21.50;53.20;;;;;;6151370;28;20075;-52
2023/03/09 01:40:50;;;;;;;9.90;2.80;;;21.50;53.20;;;;;;6151036;29;20116;-48
2023/03/09 01:43:54;;;;;;;8.45;2.28;;;21.50;53.30;;;;;;6151185;29;20102;-49
2023/03/09 01:46:57;;;;;;;10.00;3.95;;;21.60;53.40;;;;;;6151289;28;20047;-51
2023/03/09 01:50:00;;;;;;;10.80;3.58;;;21.60;53.40;;;;;;6151043;28;20058;-50
2023/03/09 01:53:07;;;;;;;11.55;4.05;;;21.60;53.40;;;;;;6150771;28;20067;-51
2023/03/09 01:56:12;;;;;;;8.60;3.33;;;21.70;53.60;;;;;;6151272;28;20058;-53
2023/03/09 01:59:14;;;;;;;14.88;4.20;;;21.60;53.60;;;;;;6150629;29;20182;-49
2023/03/09 02:02:17;;;;;;;12.75;4.28;;;21.60;53.70;;;;;;6150627;28;20105;-51
2023/03/09 02:05:24;;;;;;;12.10;5.00;;;21.60;53.80;;;;;;6150813;29;20051;-52
2023/03/09 02:08:27;;;;;;;14.35;4.22;;;21.70;53.90;;;;;;6149249;29;20051;-52
2023/03/09 02:11:32;;;;;;;11.45;3.80;;;21.50;53.90;;;;;;6149228;28;20134;-50
2023/03/09 02:14:35;;;;;;;13.63;4.15;;;21.70;54.00;;;;;;6150799;28;20092;-51
2023/03/09 02:17:36;;;;;;;14.32;4.75;;;21.70;54.00;;;;;;6150516;29;20595;-53
2023/03/09 02:20:49;;;;;;;11.95;5.00;;;21.60;54.00;;;;;;6150451;28;20121;-51
2023/03/09 02:24:00;;;;;;;14.98;4.95;;;21.60;54.00;;;;;;6151582;29;20050;-49
2023/03/09 02:27:10;;;;;;;14.40;4.28;;;21.60;54.10;;;;;;6151277;28;20050;-49
2023/03/09 02:30:12;;;;;;;13.05;4.65;;;21.50;54.10;;;;;;6148664;29;20047;-51
2023/03/09 02:33:25;;;;;;;16.95;4.47;;;21.40;54.00;;;;;;6150493;28;20046;-49
2023/03/09 02:36:28;;;;;;;12.52;4.05;;;21.70;54.30;;;;;;6150211;28;20063;-51
2023/03/09 02:39:42;;;;;;;11.63;4.85;;;21.40;54.10;;;;;;6150321;28;20509;-51
2023/03/09 02:42:47;;;;;;;11.88;4.18;;;21.70;54.30;;;;;;6150276;28;20412;-49
2023/03/09 02:45:51;;;;;;;12.73;4.50;;;21.50;54.30;;;;;;6150197;28;20090;-50
2023/03/09 02:48:53;;;;;;;15.48;4.85;;;21.40;54.20;;;;;;6149918;28;20055;-53
2023/03/09 02:51:54;;;;;;;11.05;4.05;;;21.60;54.40;;;;;;6151005;28;20399;-52
2023/03/09 02:54:56;;;;;;;17.20;5.28;;;21.40;54.30;;;;;;6150556;28;20074;-51
2023/03/09 02:57:59;;;;;;;12.57;4.80;;;21.40;54.30;;;;;;6150110;28;20047;-53
2023/03/09 03:01:01;;;;;;;11.38;4.43;;;21.40;54.30;;;;;;6150059;28;20396;-50
2023/03/09 03:04:05;;;;;;;12.90;3.83;;;21.40;54.30;;;;;;6149977;28;20047;-53
2023/03/09 03:07:09;;;;;;;10.40;4.07;;;21.50;54.30;;;;;;6149896;28;20095;-49
2023/03/09 03:10:11;;;;;;;;;;;21.50;54.30;;;;;;6150078;28;20127;-47
2023/03/09 03:13:13;;;;;;;12.55;3.78;;;21.50;54.30;;;;;;6149969;28;19929;-51
2023/03/09 03:16:16;;;;;;;14.82;4.47;;;21.40;54.20;;;;;;6149677;28;20055;-52
2023/03/09 03:19:18;;;;;;;9.52;3.78;;;21.50;54.10;;;;;;6149321;28;20059;-50
2023/03/09 03:22:20;;;;;;;11.77;3.95;;;21.30;54.10;;;;;;6149733;28;20138;-52
2023/03/09 03:25:23;;;;;;;13.48;3.70;;;21.60;54.20;;;;;;6149437;28;20055;-51
2023/03/09 03:28:28;;;;;;;8.07;3.10;;;21.40;54.00;;;;;;6149826;28;20043;-53
2023/03/09 03:31:35;;;;;;;9.77;3.25;;;21.60;54.00;;;;;;6132980;29;20061;-54
2023/03/09 03:34:37;;;;;;;8.35;2.88;;;21.40;53.80;;;;;;6163915;28;20511;-51
2023/03/09 03:37:38;;;;;;;8.05;3.10;;;21.40;53.80;;;;;;6149547;28;20086;-51
2023/03/09 03:40:42;;;;;;;;;;;21.60;53.80;;;;;;6148670;29;20099;-51
2023/03/09 03:43:45;;;;;;;8.88;3.20;;;21.30;53.60;;;;;;6150001;28;19929;-52
2023/03/09 03:46:49;;;;;;;6.32;2.30;;;21.50;53.60;;;;;;6150658;28;20101;-53
2023/03/09 03:49:50;;;;;;;;;;;21.30;53.40;;;;;;6153671;28;20082;-50
2023/03/09 03:52:52;;;;;;;7.63;2.75;;;21.30;53.50;;;;;;6153793;29;19922;-53
2023/03/09 03:55:54;;;;;;;;;;;21.40;53.40;;;;;;6154211;28;20047;-53
2023/03/09 03:58:56;;;;;;;7.03;2.30;;;21.60;53.50;;;;;;6153263;28;19922;-51
2023/03/09 04:01:58;;;;;;;7.50;2.40;;;21.40;53.30;;;;;;6153419;29;20051;-51
2023/03/09 04:05:03;;;;;;;5.20;1.90;;;21.40;53.20;;;;;;6153308;28;20102;-53
2023/03/09 04:08:05;;;;;;;6.53;2.13;;;21.50;53.10;;;;;;6152984;29;20424;-52
2023/03/09 04:11:08;;;;;;;5.57;1.92;;;21.30;52.90;;;;;;6153257;28;20047;-49
2023/03/09 04:14:14;;;;;;;5.72;1.85;;;21.20;52.80;;;;;;6136679;29;20098;-53
2023/03/09 04:17:16;;;;;;;5.18;1.70;;;21.50;52.90;;;;;;6152840;28;20098;-51
2023/03/09 04:20:17;;;;;;;5.10;1.83;;;21.60;52.90;;;;;;6153141;28;20571;-53
2023/03/09 04:23:21;;;;;;;4.20;1.83;;;21.30;52.60;;;;;;6152829;28;20051;-49
2023/03/09 04:26:28;;;;;;;4.53;1.58;;;21.50;52.70;;;;;;6152672;28;20408;-50
2023/03/09 04:29:44;;;;;;;4.55;1.60;;;21.20;52.50;;;;;;6153031;28;20459;-52
2023/03/09 04:32:48;;;;;;;5.38;1.83;;;21.40;52.40;;;;;;6152770;28;20051;-50
2023/03/09 04:35:51;;;;;;;3.53;1.42;;;21.60;52.60;;;;;;6153291;28;20036;-52
2023/03/09 04:38:59;;;;;;;3.33;1.38;;;21.30;52.30;;;;;;6152431;28;20051;-51
2023/03/09 04:42:04;;;;;;;3.83;1.60;;;21.30;52.20;;;;;;6152604;28;20051;-52
2023/03/09 04:45:07;;;;;;;3.65;1.48;;;21.30;52.20;;;;;;6152432;28;20129;-53
2023/03/09 04:48:09;;;;;;;4.57;1.67;;;21.60;52.20;;;;;;6152492;28;20051;-52
2023/03/09 04:51:12;;;;;;;3.45;1.17;;;21.30;52.10;;;;;;6152103;28;20047;-53
2023/03/09 04:54:15;;;;;;;3.47;1.42;;;21.30;52.00;;;;;;6152275;29;20078;-51
2023/03/09 04:57:17;;;;;;;2.60;0.93;;;21.50;52.10;;;;;;6152036;28;20537;-49
2023/03/09 05:00:23;;;;;;;4.80;1.63;;;21.60;52.10;;;;;;6152140;29;20048;-52
2023/03/09 05:03:29;;;;;;;2.20;0.90;;;21.40;51.90;;;;;;6152133;28;20081;-49
2023/03/09 05:06:30;;;;;;;3.38;1.35;;;21.50;51.90;;;;;;6150529;29;20090;-51
2023/03/09 05:09:32;;;;;;;4.72;1.30;;;21.30;51.80;;;;;;6151997;28;20039;-51
2023/03/09 05:12:34;;;;;;;3.10;1.30;;;21.40;51.80;;;;;;6152312;28;20043;-52
2023/03/09 05:15:39;;;;;;;3.00;1.27;;;21.30;51.80;;;;;;6152389;28;20046;-54
2023/03/09 05:18:42;;;;;;;4.55;1.27;;;21.50;51.80;;;;;;6150707;29;20077;-52
2023/03/09 05:21:48;;;;;;;2.78;1.08;;;21.50;51.80;;;;;;6151919;28;20047;-50
2023/03/09 05:24:51;;;;;;;4.22;1.25;;;21.50;51.70;;;;;;6151824;28;20075;-52
2023/03/09 05:27:52;;;;;;;;;;;21.30;51.60;;;;;;6151987;28;20043;-48
2023/03/09 05:30:55;;;;;;;4.88;1.60;;;21.50;51.80;;;;;;6151443;28;19994;-52
2023/03/09 05:33:57;;;;;;;4.10;1.17;;;21.40;51.70;;;;;;6151632;28;20538;-50
2023/03/09 05:36:59;;;;;;;;;;;21.50;51.70;;;;;;6151900;28;20512;-51
2023/03/09 05:40:04;;;;;;;3.38;1.40;;;21.20;51.50;;;;;;6151318;28;19926;-51
2023/03/09 05:43:07;;;;;;;3.50;1.48;;;21.50;51.60;;;;;;6151559;28;20051;-49
2023/03/09 05:46:11;;;;;;;4.22;1.55;;;21.20;51.50;;;;;;6151036;28;20107;-51
2023/03/09 05:49:13;;;;;;;4.57;1.33;;;21.40;51.60;;;;;;6152297;29;20400;-52
2023/03/09 05:52:14;;;;;;;;;;;21.50;51.60;;;;;;6151819;29;20054;-50
2023/03/09 05:55:17;;;;;;;4.38;1.40;;;21.40;51.70;;;;;;6151557;28;19985;-50
2023/03/09 05:58:20;;;;;;;2.97;1.17;;;21.50;51.60;;;;;;6151007;28;20047;-51
2023/03/09 06:01:24;;;;;;;5.68;1.70;;;21.20;51.50;;;;;;6151290;28;20535;-50
2023/03/09 06:04:31;;;;;;;3.70;1.50;;;21.40;51.50;;;;;;6151196;29;20389;-51
2023/03/09 06:07:37;;;;;;;5.07;1.63;;;21.50;51.60;;;;;;6150582;29;20051;-53
2023/03/09 06:10:39;;;;;;;5.10;1.50;;;21.50;51.60;;;;;;6150585;28;20031;-51
2023/03/09 06:13:44;;;;;;;4.40;1.38;;;21.10;51.40;;;;;;6151274;29;20039;-53
2023/03/09 06:16:48;;;;;;;5.43;1.67;;;21.40;51.60;;;;;;6150669;28;20202;-51
2023/03/09 06:19:52;;;;;;;4.47;1.55;;;21.20;51.50;;;;;;6150945;29;20055;-51
2023/03/09 06:22:55;;;;;;;5.10;1.60;;;21.20;51.50;;;;;;6150925;28;20186;-51
2023/03/09 06:26:02;;;;;;;3.90;1.55;;;21.20;51.40;;;;;;6150576;28;20474;-52
2023/03/09 06:29:04;;;;;;;4.90;1.42;;;21.60;51.60;;;;;;6150780;28;20055;-52
2023/03/09 06:32:08;;;;;;;6.68;1.50;;;21.30;51.50;;;;;;6150736;29;20512;-53
2023/03/09 06:35:13;;;;;;;4.38;1.27;;;21.50;51.60;;;;;;6150453;28;20051;-50
2023/03/09 06:38:15;;;;;;;3.50;1.20;;;21.20;51.40;;;;;;6150369;28;20039;-53
2023/03/09 06:41:31;;;;;;;3.80;1.00;;;21.20;51.40;;;;;;6150300;28;20058;-50
2023/03/09 06:44:42;;;;;;;4.43;1.05;;;21.30;51.40;;;;;;6150343;28;20126;-52
2023/03/09 06:47:48;;;;;;;3.88;1.13;;;21.10;51.30;;;;;;6150330;28;20046;-53
2023/03/09 06:50:50;;;;;;;4.75;1.35;;;21.20;51.40;;;;;;6150200;28;20384;-53
2023/03/09 06:53:52;;;;;;;2.50;0.88;;;21.50;51.50;;;;;;6150335;29;20051;-52
2023/03/09 07:21:05;;;;;;;2.72;0.88;;;21.40;51.30;;;;;;6149185;28;20122;-53
2023/03/09 07:24:07;;;;;;;3.00;1.10;;;21.50;51.60;;;;;;6136209;29;20528;-53
2023/03/09 07:27:11;;;;;;;1.55;0.75;;;21.10;51.40;;;;;;6153160;28;20203;-52
2023/03/09 07:30:13;;;;;;;2.67;0.80;;;21.20;51.40;;;;;;6153072;29;20052;-52
2023/03/09 07:33:15;;;;;;;1.77;0.82;;;21.50;51.70;;;;;;6153047;29;20059;-51
2023/03/09 07:36:17;;;;;;;2.17;0.80;;;21.60;51.70;;;;;;6151986;29;20137;-49
2023/03/09 07:39:19;;;;;;;2.30;0.70;;;21.30;51.50;;;;;;6152926;29;20050;-51
2023/03/09 07:42:20;;;;;;;;;;;21.50;51.60;;;;;;6152009;29;20051;-53
2023/03/09 07:50:57;;;;;;;1.85;0.82;;;21.60;51.50;;;;;;6152565;29;20043;-51
2023/03/09 07:54:00;;;;;;;1.75;0.77;;;21.30;51.50;;;;;;6152516;28;20086;-51
2023/03/09 07:57:01;;;;;;;1.27;0.70;;;21.40;51.60;;;;;;6152127;29;20054;-50
2023/03/09 08:00:07;;;;;;;3.60;0.95;;;21.40;51.70;;;;;;6152167;29;20047;-51
2023/03/09 08:03:12;;;;;;;3.55;0.90;;;21.50;51.80;;;;;;6152733;29;20494;-52
2023/03/09 08:06:14;;;;;;;3.80;0.80;;;21.50;51.90;;;;;;6152049;29;20069;-52
2023/03/09 08:09:19;;;;;;;2.30;0.90;;;21.50;52.00;;;;;;6151397;29;20047;-48
2023/03/09 08:12:20;;;;;;;2.25;0.93;;;21.30;52.00;;;;;;6152398;28;20062;-50
2023/03/09 08:15:22;;;;;;;1.70;0.63;;;21.50;52.20;;;;;;6152569;29;20047;-46
2023/03/09 08:18:24;;;;;;;1.13;0.63;;;21.50;52.10;;;;;;6152377;29;20491;-50
2023/03/09 08:21:25;;;;;;;1.92;0.88;;;21.40;52.30;;;;;;6151996;29;20050;-53
2023/03/09 08:24:29;;;;;;;2.35;0.75;;;21.70;52.20;;;;;;6152002;29;20039;-52
2023/03/09 08:27:36;;;;;;;2.47;0.90;;;21.50;52.00;;;;;;6151913;28;20054;-52
2023/03/09 08:30:38;;;;;;;1.63;0.85;;;21.60;52.00;;;;;;6152412;28;20051;-53
2023/03/09 08:33:40;;;;;;;1.98;0.90;;;21.70;52.00;;;;;;6134596;29;20050;-53
2023/03/09 08:36:42;;;;;;;1.40;0.75;;;21.50;51.90;;;;;;6151903;28;20488;-52
2023/03/09 08:39:44;;;;;;;;;;;21.80;52.10;;;;;;6152566;28;20051;-52
2023/03/09 08:42:45;;;;;;;1.77;0.77;;;21.80;52.10;;;;;;6152607;28;20279;-51
2023/03/09 08:45:47;;;;;;;1.50;0.70;;;21.80;52.00;;;;;;6150459;29;20112;-51
2023/03/09 08:48:48;;;;;;;1.77;0.80;;;21.80;52.10;;;;;;6151322;28;20051;-51
2023/03/09 08:51:50;;;;;;;;;;;21.80;52.00;;;;;;6152050;29;20050;-51
2023/03/09 08:54:52;;;;;;;2.28;0.95;;;21.80;52.10;;;;;;6152066;28;19929;-50
2023/03/09 08:57:55;;;;;;;2.20;0.93;;;21.60;51.90;;;;;;6149940;29;20058;-52
2023/03/09 09:00:59;;;;;;;2.42;1.17;;;21.70;52.00;;;;;;6151448;28;20043;-48
2023/03/09 09:04:00;;;;;;;2.35;1.02;;;21.80;52.00;;;;;;6151236;28;20357;-49
2023/03/09 09:07:01;;;;;;;;;;;21.90;52.10;;;;;;6151571;29;20039;-51
2023/03/09 09:10:05;;;;;;;1.95;0.95;;;21.90;52.10;;;;;;6151139;28;19973;-51
2023/03/09 09:13:08;;;;;;;1.85;0.73;;;21.80;52.00;;;;;;6150818;28;20047;-53
2023/03/09 09:16:10;;;;;;;;;;;21.70;52.10;;;;;;6151445;29;20063;-50
2023/03/09 09:19:13;;;;;;;2.28;1.48;;;22.00;52.30;;;;;;6149852;29;19923;-48
2023/03/09 09:22:14;;;;;;;2.13;0.90;;;22.00;52.20;;;;;;6151228;28;20039;-53
2023/03/09 09:25:17;;;;;;;;;;;22.00;52.30;;;;;;6151297;29;20043;-52
2023/03/09 09:28:18;;;;;;;2.03;0.85;;;22.00;52.40;;;;;;6151106;28;19923;-51
2023/03/09 09:31:20;;;;;;;2.70;0.88;;;22.00;52.30;;;;;;6151064;29;20051;-49
2023/03/09 09:34:25;;;;;;;2.70;0.82;;;21.80;52.40;;;;;;6149653;29;20575;-48
2023/03/09 09:37:28;;;;;;;;;;;22.10;52.60;;;;;;6151315;29;20051;-51
2023/03/09 09:40:34;;;;;;;3.10;0.68;;;22.00;52.50;;;;;;6150936;28;19922;-53
2023/03/09 09:43:39;;;;;;;1.80;0.73;;;22.10;52.50;;;;;;6150703;28;20047;-53
2023/03/09 09:46:41;;;;;;;1.90;0.98;;;22.10;52.70;;;;;;6150356;28;20536;-52
2023/03/09 09:49:46;;;;;;;2.25;0.70;;;22.00;52.70;;;;;;6149578;29;20047;-52
2023/03/09 09:52:55;;;;;;;1.77;0.60;;;22.00;52.80;;;;;;6149530;29;20047;-52
2023/03/09 09:55:59;;;;;;;2.33;0.80;;;22.10;52.90;;;;;;6151099;28;20043;-53
2023/03/09 09:59:04;;;;;;;2.90;1.02;;;22.00;52.80;;;;;;6150488;29;20051;-52
2023/03/09 10:02:26;;;;;;;2.72;0.90;;;22.20;52.90;;;;;;6133751;29;20166;-52
2023/03/09 10:05:35;;;;;;;2.50;1.00;;;22.30;53.00;;;;;;6150091;29;20047;-51
2023/03/09 10:08:44;;;;;;;2.03;0.93;;;22.20;53.00;;;;;;6151043;28;20059;-53
2023/03/09 10:11:49;;;;;;;1.83;0.82;;;22.10;52.80;;;;;;6150215;28;20058;-52
2023/03/09 10:14:56;;;;;;;2.50;1.00;;;21.90;52.80;;;;;;6150009;28;20533;-53
2023/03/09 10:18:01;;;;;;;1.38;0.63;;;22.10;53.00;;;;;;6150435;29;20393;-51
2023/03/09 10:21:06;;;;;;;2.60;1.02;;;22.20;53.00;;;;;;6150300;28;20481;-52
2023/03/09 10:24:21;;;;;;;3.53;0.90;;;22.30;53.10;;;;;;6148840;29;20051;-53
2023/03/09 10:27:29;;;;;;;1.38;0.75;;;22.00;52.90;;;;;;6149408;29;20506;-51
2023/03/09 10:30:39;;;;;;;2.42;0.80;;;22.20;53.00;;;;;;6149891;29;20050;-50
2023/03/09 10:33:44;;;;;;;2.42;1.02;;;22.20;53.10;;;;;;6149940;28;20047;-52
2023/03/09 10:36:58;;;;;;;1.58;0.75;;;22.20;53.30;;;;;;6150248;28;20058;-53
2023/03/09 10:40:04;;;;;;;1.60;0.80;;;22.20;53.10;;;;;;6150653;28;20039;-52
2023/03/09 10:43:14;;;;;;;1.60;0.93;;;22.30;53.20;;;;;;6149648;28;20096;-48
2023/03/09 10:46:18;;;;;;;1.83;0.68;;;22.30;53.20;;;;;;6149459;28;20052;-51
2023/03/09 10:49:19;;;;;;;1.90;0.68;;;22.10;53.10;;;;;;6148221;29;20102;-51
2023/03/09 10:52:21;;;;;;;1.75;0.77;;;22.30;53.30;;;;;;6149607;29;20091;-46
2023/03/09 10:55:37;;;;;;;1.73;0.80;;;22.10;53.20;;;;;;6149480;28;20408;-53
2023/03/09 10:58:44;;;;;;;3.30;0.87;;;22.30;53.30;;;;;;6152436;29;20102;-53
2023/03/09 11:01:47;;;;;;;1.90;0.75;;;22.30;53.30;;;;;;6153569;29;20047;-52
2023/03/09 11:04:50;;;;;;;1.75;0.88;;;22.10;53.30;;;;;;6153130;29;20122;-51
2023/03/09 11:07:53;;;;;;;2.45;0.75;;;22.40;53.40;;;;;;6153486;29;20168;-52
2023/03/09 11:11:04;;;;;;;2.03;0.40;;;22.30;53.40;;;;;;6136329;28;20160;-50
2023/03/09 11:14:22;;;;;;;2.65;0.80;;;22.30;53.50;;;;;;6137578;29;20039;-52
2023/03/09 11:17:35;;;;;;;1.77;0.77;;;22.20;53.60;;;;;;6154240;29;20051;-50
2023/03/09 11:20:38;;;;;;;2.08;0.73;;;22.40;53.70;;;;;;6152211;29;20111;-53
2023/03/09 11:23:44;;;;;;;1.92;0.80;;;22.50;53.70;;;;;;6153377;28;20405;-50
2023/03/09 11:26:51;;;;;;;2.65;0.50;;;22.40;53.70;;;;;;6153474;29;20043;-53
2023/03/09 11:30:02;;;;;;;2.00;0.80;;;22.60;53.80;;;;;;6153438;29;20496;-52
2023/03/09 11:33:09;;;;;;;2.80;0.80;;;22.50;53.70;;;;;;6153180;29;20039;-48
2023/03/09 11:36:16;;;;;;;2.35;0.70;;;22.50;53.70;;;;;;6152827;28;20039;-52
2023/03/09 11:39:28;;;;;;;2.33;0.80;;;22.40;53.70;;;;;;6153297;29;20051;-53
2023/03/09 11:42:34;;;;;;;1.58;0.65;;;22.50;53.70;;;;;;6153083;29;20047;-49
2023/03/09 11:45:37;;;;;;;1.23;0.60;;;22.40;53.70;;;;;;6152288;29;20054;-50
2023/03/09 11:48:43;;;;;;;2.33;0.88;;;22.50;53.70;;;;;;6153031;29;20040;-51
2023/03/09 11:51:49;;;;;;;2.30;0.75;;;22.50;53.70;;;;;;6152811;29;20054;-52
2023/03/09 11:54:54;;;;;;;1.65;0.80;;;22.40;53.60;;;;;;6152445;28;20043;-53
2023/03/09 11:58:00;;;;;;;1.35;0.50;;;22.40;53.60;;;;;;6152379;29;20048;-53
2023/03/09 12:01:10;;;;;;;2.28;0.60;;;22.30;53.60;;;;;;6135689;29;20040;-50
2023/03/09 12:04:15;;;;;;;2.08;0.90;;;22.50;53.60;;;;;;6153067;28;20055;-50
2023/03/09 12:07:22;;;;;;;1.65;0.57;;;22.60;53.70;;;;;;6151186;28;20357;-52
2023/03/09 12:10:28;;;;;;;1.88;0.80;;;22.40;53.50;;;;;;6152324;29;20047;-57
2023/03/09 12:13:33;;;;;;;1.38;0.77;;;22.50;53.60;;;;;;6151806;28;20122;-52
2023/03/09 12:16:38;;;;;;;4.18;0.75;;;22.50;53.70;;;;;;6150821;29;20083;-53
2023/03/09 12:19:48;;;;;;;1.52;0.60;;;22.50;53.70;;;;;;6152855;28;20487;-52
2023/03/09 12:22:50;;;;;;;2.90;1.02;;;22.20;53.70;;;;;;6150967;29;20087;-53
2023/03/09 12:25:56;;;;;;;5.20;0.98;;;22.60;53.90;;;;;;6152116;29;20102;-53
2023/03/09 12:29:04;;;;;;;1.25;0.60;;;22.50;53.80;;;;;;6150720;29;20066;-51
2023/03/09 12:32:33;;;;;;;3.40;0.80;;;22.50;53.80;;;;;;6150187;29;20050;-52
2023/03/09 12:35:58;;;;;;;2.58;0.90;;;22.50;53.80;;;;;;6150685;29;20091;-48
2023/03/09 12:39:31;;;;;;;2.15;0.60;;;22.50;53.80;;;;;;6138617;29;20114;-52
2023/03/09 12:42:39;;;;;;;1.40;0.63;;;22.60;53.90;;;;;;6151007;29;20070;-51
2023/03/09 12:45:41;;;;;;;1.75;1.17;;;22.50;53.80;;;;;;6151732;29;20046;-52
2023/03/09 12:48:44;;;;;;;1.35;0.65;;;22.60;53.90;;;;;;6152209;29;20043;-53
2023/03/09 12:51:58;;;;;;;2.10;0.75;;;22.60;53.90;;;;;;6151828;28;20122;-51
2023/03/09 12:55:03;;;;;;;2.72;0.77;;;22.30;53.70;;;;;;6151555;28;20051;-51
2023/03/09 12:58:35;;;;;;;3.22;0.90;;;22.40;53.70;;;;;;6150615;29;20047;-50
2023/03/09 13:01:37;;;;;;;1.40;0.73;;;22.90;54.00;;;;;;6138672;29;20043;-52
2023/03/09 13:04:39;;;;;;;2.22;0.60;;;22.50;53.80;;;;;;6151781;28;20054;-51
2023/03/09 13:07:41;;;;;;;1.33;0.70;;;22.50;53.80;;;;;;6151315;29;20515;-52
2023/03/09 13:10:46;;;;;;;3.70;0.88;;;22.50;53.80;;;;;;6151622;29;20039;-54
2023/03/09 13:13:49;;;;;;;2.70;0.85;;;22.60;53.90;;;;;;6151100;29;20059;-50
2023/03/09 13:16:58;;;;;;;2.65;0.60;;;22.60;53.90;;;;;;6151025;28;20092;-52
2023/03/09 13:20:16;;;;;;;2.58;0.77;;;22.50;53.80;;;;;;6149897;28;20484;-51
2023/03/09 13:23:19;;;;;;;3.03;1.00;;;22.60;53.80;;;;;;6151034;29;20106;-53
2023/03/09 13:26:23;;;;;;;4.18;1.10;;;22.70;53.80;;;;;;6149396;29;20488;-51
2023/03/09 13:29:26;;;;;;;2.40;0.70;;;22.60;53.80;;;;;;6151065;29;20078;-53
2023/03/09 13:32:30;;;;;;;4.07;1.40;;;22.50;53.60;;;;;;6150731;28;20047;-51
2023/03/09 13:35:37;;;;;;;4.88;1.00;;;22.70;53.50;;;;;;6149482;29;20044;-54
2023/03/09 13:38:43;;;;;;;3.05;0.98;;;22.70;53.40;;;;;;6149501;29;20043;-52
2023/03/09 13:41:45;;;;;;;3.20;1.02;;;22.70;53.30;;;;;;6149801;29;20075;-53
2023/03/09 13:44:48;;;;;;;3.92;1.38;;;22.60;53.10;;;;;;6150764;29;20512;-51
2023/03/09 13:47:53;;;;;;;4.55;1.48;;;22.70;53.00;;;;;;6150886;28;20493;-52
2023/03/09 13:50:55;;;;;;;5.05;1.30;;;22.60;52.80;;;;;;6149466;29;20412;-53
2023/03/09 13:53:57;;;;;;;6.35;1.23;;;22.50;52.60;;;;;;6151384;29;20489;-53
2023/03/09 13:56:59;;;;;;;;;;;22.60;52.50;;;;;;6151157;28;20047;-52
2023/03/09 14:00:15;;;;;;;3.67;1.10;;;22.60;52.40;;;;;;6151311;28;20316;-51
2023/03/09 14:03:16;;;;;;;3.13;1.15;;;22.50;52.30;;;;;;6149890;28;20131;-54
2023/03/09 14:06:25;;;;;;;;;;;22.60;52.20;;;;;;6150574;28;20143;-50
2023/03/09 14:09:54;;;;;;;3.60;0.75;;;22.60;52.20;;;;;;6149200;29;19922;-51
2023/03/09 14:12:58;;;;;;;2.92;0.75;;;22.40;52.10;;;;;;6149178;28;20081;-52
2023/03/09 14:16:05;;;;;;;3.63;1.05;;;22.50;52.30;;;;;;6133167;28;20472;-52
2023/03/09 14:19:23;;;;;;;2.78;0.63;;;22.60;52.30;;;;;;6151017;29;20070;-50
2023/03/09 14:22:28;;;;;;;2.38;0.93;;;21.60;51.90;;;;;;6148866;29;20054;-46
2023/03/09 14:25:31;;;;;;;2.58;0.73;;;22.70;52.40;;;;;;6132204;29;20054;-50
2023/03/09 14:28:38;;;;;;;2.22;0.73;;;22.60;52.40;;;;;;6148946;29;20081;-52
2023/03/09 14:31:41;;;;;;;3.20;0.98;;;22.50;52.30;;;;;;6149553;28;20114;-50
2023/03/09 14:34:43;;;;;;;2.63;0.70;;;22.60;52.30;;;;;;6150375;28;20138;-53
2023/03/09 14:37:51;;;;;;;1.90;0.95;;;22.60;52.30;;;;;;6149731;29;20043;-51
2023/03/09 14:40:59;;;;;;;1.55;0.65;;;22.60;52.30;;;;;;6149656;29;20515;-51
2023/03/09 14:44:01;;;;;;;2.72;0.77;;;22.70;52.40;;;;;;6149848;28;20051;-50
2023/03/09 14:47:04;;;;;;;1.08;0.65;;;22.70;52.30;;;;;;6149433;28;20054;-52
2023/03/09 14:50:13;;;;;;;1.85;0.60;;;22.50;52.20;;;;;;6149753;28;20525;-51
2023/03/09 14:53:20;;;;;;;1.25;0.32;;;22.70;52.30;;;;;;6149754;28;20408;-49
2023/03/09 14:56:24;;;;;;;1.42;0.80;;;22.80;52.40;;;;;;6148290;29;20043;-53
2023/03/09 14:59:25;;;;;;;1.83;0.60;;;22.50;52.20;;;;;;6148065;29;20058;-52
2023/03/09 15:02:27;;;;;;;1.98;0.70;;;22.70;52.20;;;;;;6149222;28;20066;-50
2023/03/09 15:05:29;;;;;;;2.55;0.98;;;22.80;52.30;;;;;;6149410;28;20047;-52
2023/03/09 15:08:31;;;;;;;2.90;0.88;;;22.70;52.20;;;;;;6149583;28;20412;-50
2023/03/09 15:11:33;;;;;;;2.03;0.55;;;22.80;52.30;;;;;;6149455;28;20080;-51
2023/03/09 15:14:37;;;;;;;1.63;0.80;;;22.70;52.20;;;;;;6149333;29;20035;-51
2023/03/09 15:17:39;;;;;;;1.63;0.50;;;22.60;52.20;;;;;;6132242;29;20102;-52
2023/03/09 15:20:41;;;;;;;;;;;22.60;52.20;;;;;;6149465;29;20044;-49
2023/03/09 15:23:47;;;;;;;1.00;0.73;;;22.60;52.20;;;;;;6149185;28;19950;-50
2023/03/09 15:26:49;;;;;;;1.60;0.50;;;22.60;52.20;;;;;;6150022;28;20048;-51
2023/03/09 15:29:51;;;;;;;1.23;0.50;;;22.80;52.30;;;;;;6132417;29;20163;-51
2023/03/09 15:32:52;;;;;;;;;;;22.80;52.30;;;;;;6149879;28;20102;-53
2023/03/09 15:35:55;;;;;;;;;;;22.70;52.30;;;;;;6148378;28;19953;-51
2023/03/09 15:38:58;;;;;;;0.77;0.40;;;22.80;52.30;;;;;;6149048;28;19922;-50
2023/03/09 15:42:00;;;;;;;2.97;0.70;;;22.70;52.30;;;;;;6148812;28;20043;-52
2023/03/09 15:45:02;;;;;;;2.05;0.60;;;22.80;52.40;;;;;;6152176;29;20046;-48
2023/03/09 15:48:03;;;;;;;1.35;0.75;;;22.80;52.30;;;;;;6153257;28;20058;-50
2023/03/09 15:51:04;;;;;;;;;;;22.80;52.30;;;;;;6153132;29;20054;-51
2023/03/09 15:54:06;;;;;;;1.80;0.68;;;22.90;52.40;;;;;;6153274;28;19922;-48
2023/03/09 15:57:08;;;;;;;2.08;0.98;;;22.70;52.20;;;;;;6152965;29;20047;-50
2023/03/09 16:00:10;;;;;;;;;;;22.70;52.20;;;;;;6153346;28;20040;-50
2023/03/09 16:03:12;;;;;;;1.23;0.57;;;22.60;52.20;;;;;;6153648;28;19961;-52
2023/03/09 16:06:13;;;;;;;;;;;22.50;52.10;;;;;;6153401;28;20050;-50
2023/03/09 16:09:15;;;;;;;2.50;0.68;;;22.60;52.10;;;;;;6153291;28;19929;-50
2023/03/09 16:12:17;;;;;;;1.35;0.60;;;22.80;52.20;;;;;;6153152;28;20538;-49
2023/03/09 16:15:18;;;;;;;0.80;0.50;;;22.80;52.10;;;;;;6152720;28;20078;-52
2023/03/09 16:18:20;;;;;;;;;;;22.60;52.00;;;;;;6153031;28;20087;-49
2023/03/09 16:21:21;;;;;;;1.77;0.70;;;22.70;52.10;;;;;;6152438;28;20375;-50
2023/03/09 16:24:23;;;;;;;;;;;22.80;52.10;;;;;;6153123;29;20046;-51
2023/03/09 16:27:26;;;;;;;2.17;0.70;;;22.70;52.00;;;;;;6152456;28;19922;-49
2023/03/09 16:30:29;;;;;;;;;;;22.80;52.00;;;;;;6152990;29;20039;-50
2023/03/09 16:33:33;;;;;;;1.42;0.57;;;22.70;52.50;;;;;;6152545;28;20043;-50
2023/03/09 16:36:34;;;;;;;0.95;0.63;;;22.80;51.90;;;;;;6152774;28;20043;-50
2023/03/09 16:39:39;;;;;;;1.67;0.80;;;22.70;51.90;;;;;;6152149;28;20154;-50